Latest Weather Observations for Strathalbyn

IDS60901

Issued at 4:25 pm CDT Sunday 26 October 2014 (issued every 10 minutes, with the page automatically refreshed every 10 minutes)

About weather observations | Map of Adelaide area stations | Latest observations for Adelaide area | Other Formats
Station Details ID: 024580 Name: STRATHALBYN RACECOURSE Lat: -35.28 Lon: 138.89 Height: 58.0 m
Data from the previous 72 hours. | See also: Recent months at Strathalbyn
Date/Time
CDT
Tmp

°C
App
Tmp
°C
Dew
Point
°C
Rel
Hum
%
Delta-T

°C
Wind Press
QNH
hPa
Press
MSL
hPa
Rain
since
9 am
mm
Dir
 
Spd
km/h
Gust
km/h
Spd
kts
Gust
kts
26/04:00pm 28.0 23.5 10.2 33 10.0 NW 24 35 13 19 1007.1 - 0.0
26/03:30pm 26.8 23.3 12.1 40 8.5 N 22 32 12 17 1007.5 - 0.0
26/03:00pm 24.0 21.3 14.7 56 5.6 N 22 33 12 18 1007.9 1007.8 0.0
26/02:48pm 24.3 20.3 11.9 45 7.1 NW 24 39 13 21 1008.3 - 0.0
26/02:35pm 26.4 21.0 10.9 38 8.8 WNW 30 48 16 26 1010.3 - 0.0
26/02:30pm 26.5 20.3 10.2 36 9.1 WNW 33 48 18 26 1010.1 - 0.0
26/02:26pm 26.7 21.5 10.4 36 9.1 W 28 46 15 25 1010.0 - 0.0
26/02:00pm 28.3 24.6 10.0 32 10.3 WNW 20 37 11 20 1009.8 - 0.0
26/01:30pm 27.2 24.6 10.8 36 9.3 W 15 20 8 11 1010.1 - 0.0
26/01:02pm 26.0 20.7 11.4 40 8.3 NW 30 48 16 26 1010.4 - 0.0
26/01:00pm 26.2 20.2 10.8 38 8.7 NW 33 48 18 26 1010.5 - 0.0
26/12:53pm 27.5 22.3 10.2 34 9.7 WNW 28 46 15 25 1010.7 - 0.0
26/12:30pm 27.7 24.2 10.9 35 9.6 NNW 20 28 11 15 1010.3 - 0.0
26/12:00pm 25.0 23.8 11.6 43 7.6 ENE 9 13 5 7 1010.0 1009.9 0.0
26/11:30am 23.2 22.5 11.9 49 6.4 ENE 7 11 4 6 1010.0 - 0.0
26/11:00am 21.5 20.1 12.1 55 5.3 NE 11 15 6 8 1010.6 - 0.0
26/10:30am 20.0 17.7 11.7 59 4.6 NNE 15 19 8 10 1011.6 - 0.0
26/10:00am 17.1 16.5 12.2 73 2.7 NE 7 11 4 6 1011.9 - 0.0
26/09:30am 15.4 15.2 11.8 79 2.0 NE 4 7 2 4 1012.6 - 0.0
26/09:00am 14.3 12.0 11.6 84 1.4 NNE 15 22 8 12 1012.9 1012.8 0.0
26/08:30am 13.6 11.4 10.9 84 1.4 NNW 13 19 7 10 1013.3 - 0.0
26/08:00am 13.4 12.2 10.4 82 1.6 W 7 11 4 6 1014.9 - 0.0
26/07:30am 13.1 12.9 10.3 83 1.5 W 2 7 1 4 1015.3 - 0.0
26/07:10am 13.3 11.1 10.7 84 1.4 NW 13 28 7 15 1015.4 - 0.0
26/07:00am 13.1 11.2 10.5 84 1.4 WNW 11 13 6 7 1012.9 - 0.0
26/06:30am 12.9 11.4 10.4 85 1.3 WNW 9 15 5 8 1013.6 - 0.0
26/06:00am 12.9 11.4 10.4 85 1.3 WNW 9 13 5 7 1013.3 1013.2 0.0
26/05:30am 12.8 11.2 10.3 85 1.3 SW 9 13 5 7 1013.1 - 0.0
26/05:00am 12.9 11.7 10.4 85 1.3 SW 7 11 4 6 1012.9 - 0.0
26/04:30am 13.0 11.5 10.4 84 1.4 SSW 9 11 5 6 1013.0 - 0.0
26/04:00am 13.0 11.8 10.4 84 1.4 SW 7 13 4 7 1013.6 - 0.0
26/03:30am 13.1 12.0 10.5 84 1.4 SW 7 9 4 5 1013.5 - 0.0
26/03:00am 13.2 12.3 10.6 84 1.4 SW 6 9 3 5 1013.6 1013.5 0.0
26/02:30am 13.4 12.3 10.6 83 1.5 SW 7 11 4 6 1013.7 - 0.0
26/02:00am 13.3 12.7 10.5 83 1.5 SW 4 9 2 5 1014.2 - 0.0
26/01:30am 13.4 12.9 10.6 83 1.5 SW 4 7 2 4 1014.3 - 0.0
26/01:00am 13.6 13.1 10.6 82 1.6 SW 4 7 2 4 1014.9 - 0.0
26/12:30am 13.6 13.4 10.6 82 1.6 SSW 2 7 1 4 1015.2 - 0.0
26/12:00am 13.8 12.7 10.8 82 1.6 SSW 7 9 4 5 1015.7 1015.7 0.0
 
Date/Time
CDT
Tmp

°C
App
Tmp
°C
Dew
Point
°C
Rel
Hum
%
Delta-T

°C
Wind Press
QNH
hPa
Press
MSL
hPa
Rain
since
9 am
mm
Dir
 
Spd
km/h
Gust
km/h
Spd
kts
Gust
kts
25/11:30pm 13.9 12.4 10.7 81 1.7 SSW 9 11 5 6 1015.9 - 0.0
25/11:00pm 14.3 13.2 10.7 79 1.9 SSW 7 11 4 6 1016.4 - 0.0
25/10:30pm 14.2 13.1 10.6 79 1.9 SW 7 13 4 7 1016.6 - 0.0
25/10:00pm 14.6 12.8 11.0 79 1.9 SW 11 13 6 7 1017.0 - 0.0
25/09:30pm 14.8 13.1 11.2 79 1.9 SW 11 17 6 9 1017.2 - 0.0
25/09:00pm 14.8 12.7 11.2 79 1.9 SSW 13 17 7 9 1016.9 1016.9 0.0
25/08:30pm 15.1 12.7 11.3 78 2.0 S 15 20 8 11 1016.6 - 0.0
25/08:00pm 15.4 12.6 11.4 77 2.2 S 17 20 9 11 1016.3 - 0.0
25/07:30pm 15.7 12.6 11.5 76 2.3 S 19 22 10 12 1016.2 - 0.0
25/07:00pm 16.1 12.9 11.3 73 2.6 SSW 19 24 10 13 1016.1 - 0.0
25/06:30pm 17.0 13.6 11.3 69 3.1 S 20 26 11 14 1015.8 - 0.0
25/06:00pm 17.6 14.2 11.2 66 3.5 SSW 20 26 11 14 1015.6 1015.6 0.0
25/05:30pm 18.6 14.4 11.2 62 4.0 S 24 32 13 17 1015.6 - 0.0
25/05:00pm 19.1 15.3 11.2 60 4.3 S 22 30 12 16 1015.5 - 0.0
25/04:30pm 19.9 15.8 11.4 58 4.7 SSW 24 32 13 17 1015.4 - 0.0
25/04:00pm 20.2 16.9 11.7 58 4.7 S 20 30 11 16 1015.5 - 0.0
25/03:30pm 20.5 16.6 12.0 58 4.8 S 24 32 13 17 1015.6 - 0.0
25/03:00pm 20.3 16.3 11.8 58 4.7 S 24 33 13 18 1015.6 1015.6 0.0
25/02:30pm 20.2 15.9 10.9 55 5.1 S 24 33 13 18 1015.7 - 0.0
25/02:00pm 21.2 17.3 12.1 56 5.1 S 24 33 13 18 1015.5 - 0.0
25/01:30pm 21.7 17.6 11.4 52 5.7 S 24 33 13 18 1015.6 - 0.0
25/01:00pm 22.9 20.2 11.6 49 6.4 S 17 24 9 13 1015.6 - 0.0
25/12:30pm 22.2 19.1 11.6 51 5.9 SSE 19 28 10 15 1015.8 - 0.0
25/12:00pm 22.2 20.2 11.6 51 5.9 SSE 13 20 7 11 1015.9 1015.9 0.0
25/11:30am 21.4 20.2 11.7 54 5.4 SSE 9 17 5 9 1016.5 - 0.0
25/11:00am 20.2 19.2 11.1 56 5.0 SSE 7 13 4 7 1017.0 - 0.0
25/10:30am 19.6 18.4 11.6 60 4.4 SSE 9 13 5 7 1017.4 - 0.0
25/10:00am 18.2 17.0 11.5 65 3.7 SSE 9 13 5 7 1017.5 - 0.0
25/09:30am 17.3 16.6 11.3 68 3.3 SSE 6 11 3 6 1017.8 - 0.0
25/09:00am 16.3 15.0 11.2 72 2.7 SSE 9 20 5 11 1017.9 1017.9 0.0
25/08:30am 16.0 15.4 11.8 76 2.3 SSE 6 9 3 5 1017.8 - 0.0
25/08:00am 15.3 13.7 11.5 78 2.0 SSE 11 15 6 8 1017.6 - 0.0
25/07:30am 15.2 13.7 12.0 81 1.7 SSE 11 15 6 8 1017.2 - 0.0
25/07:00am 15.3 14.2 12.1 81 1.7 SSE 9 13 5 7 1017.0 - 0.0
25/06:30am 15.6 14.7 11.4 76 2.3 S 7 11 4 6 1016.7 - 0.0
25/06:00am 15.6 14.8 11.8 78 2.1 S 7 11 4 6 1016.2 1016.2 0.0
25/05:30am 15.5 14.7 11.7 78 2.1 S 7 9 4 5 1015.6 - 0.0
25/05:00am 15.4 14.6 11.6 78 2.1 SSE 7 11 4 6 1015.2 - 0.0
25/04:30am 15.6 14.8 11.6 77 2.2 S 7 9 4 5 1015.3 - 0.0
25/04:00am 15.7 15.5 11.9 78 2.1 S 4 7 2 4 1015.5 - 0.0
25/03:30am 15.7 15.2 12.1 79 2.0 S 6 7 3 4 1015.5 - 0.0
25/03:00am 15.7 15.2 11.9 78 2.1 S 6 9 3 5 1015.6 1015.6 0.0
25/02:30am 15.6 15.0 11.8 78 2.1 S 6 7 3 4 1015.8 - 0.0
25/02:00am 15.6 14.5 11.8 78 2.1 S 9 13 5 7 1015.8 - 0.0
25/01:30am 15.6 14.8 11.8 78 2.1 S 7 11 4 6 1016.1 - 0.0
25/01:00am 15.6 13.7 11.8 78 2.1 S 13 17 7 9 1016.5 - 0.0
25/12:30am 15.8 14.0 12.2 79 2.0 S 13 20 7 11 1016.7 - 0.0
25/12:00am 16.0 13.9 12.4 79 2.0 S 15 20 8 11 1016.4 1016.4 0.0
 
Date/Time
CDT
Tmp

°C
App
Tmp
°C
Dew
Point
°C
Rel
Hum
%
Delta-T

°C
Wind Press
QNH
hPa
Press
MSL
hPa
Rain
since
9 am
mm
Dir
 
Spd
km/h
Gust
km/h
Spd
kts
Gust
kts
24/11:30pm 16.0 13.6 12.6 80 1.9 S 17 20 9 11 1016.5 - 0.0
24/11:00pm 16.3 14.7 12.8 80 1.9 S 13 17 7 9 1016.5 - 0.0
24/10:30pm 16.4 14.4 12.8 79 2.0 SSW 15 19 8 10 1016.5 - 0.0
24/10:00pm 16.6 14.7 13.1 80 2.0 SSW 15 19 8 10 1016.4 - 0.0
24/09:30pm 16.7 14.9 13.2 80 2.0 SSW 15 20 8 11 1016.2 - 0.0
24/09:00pm 16.9 14.4 13.4 80 2.0 SSW 19 24 10 13 1015.9 1015.9 0.0
24/08:30pm 16.9 14.4 13.6 81 1.9 SSW 19 24 10 13 1015.4 - 0.0
24/08:00pm 16.9 15.6 13.6 81 1.9 S 13 17 7 9 1015.1 - 0.0
24/07:30pm 18.0 15.3 12.9 72 2.9 S 19 26 10 14 1014.9 - 0.0
24/07:00pm 18.4 15.4 12.6 69 3.2 S 20 30 11 16 1014.5 - 0.0
24/06:30pm 19.6 15.6 13.1 66 3.7 S 26 35 14 19 1014.0 - 0.0
24/06:00pm 21.6 17.8 12.5 56 5.2 S 24 30 13 16 1013.3 1013.2 0.0
24/05:30pm 22.7 17.0 11.7 49 6.2 SSW 33 41 18 22 1012.9 - 0.0
24/05:00pm 24.2 18.3 10.5 42 7.6 S 32 39 17 21 1012.4 - 0.0
24/04:46pm 25.7 19.2 8.2 33 9.4 S 32 41 17 22 1012.1 - 0.0
24/04:30pm 30.8 27.5 7.9 24 12.6 WSW 15 32 8 17 1011.9 - 0.0
24/04:00pm 33.0 29.4 2.9 15 15.4 WNW 11 20 6 11 1011.8 - 0.0
24/03:30pm 31.9 27.2 1.1 14 15.2 NW 15 20 8 11 1012.1 - 0.0
24/03:00pm 31.2 26.6 1.5 15 14.7 W 15 28 8 15 1012.4 1012.3 0.0
24/02:30pm 30.7 25.4 2.9 17 14.0 WSW 20 30 11 16 1012.7 - 0.0
24/02:00pm 30.7 24.8 2.0 16 14.3 W 22 35 12 19 1013.0 - 0.0
24/01:30pm 30.2 25.9 3.3 18 13.6 WSW 15 26 8 14 1013.2 - 0.0
24/01:00pm 29.7 25.6 4.4 20 13.0 W 15 24 8 13 1013.2 - 0.0
24/12:30pm 29.5 25.9 4.9 21 12.8 W 13 24 7 13 1013.5 - 0.0
24/12:00pm 29.1 25.2 7.1 25 11.8 W 17 24 9 13 1013.7 1013.6 0.0
24/11:30am 28.2 23.7 6.3 25 11.6 WSW 19 26 10 14 1014.0 - 0.0
24/11:00am 27.7 25.2 8.1 29 10.6 WNW 11 20 6 11 1014.2 - 0.0
24/10:58am 27.2 25.3 9.1 32 10.0 WNW 9 19 5 10 1014.2 - 0.0
24/10:30am 22.2 21.3 10.7 48 6.3 SSW 6 11 3 6 1014.5 - 0.0
24/10:00am 19.2 18.8 11.0 59 4.5 SSW 4 9 2 5 1014.5 - 0.0
24/09:30am 17.1 16.3 10.9 67 3.3 SSW 6 7 3 4 1014.4 - 0.0
24/09:00am 15.7 16.1 11.1 74 2.5 CALM 0 0 0 0 1014.4 1014.4 0.2
24/08:30am 14.3 13.4 10.5 78 2.0 SSW 6 7 3 4 1014.1 - 0.2
24/08:00am 12.6 11.7 10.5 87 1.1 SSW 6 9 3 5 1014.0 - 0.2
24/07:30am 11.9 11.6 10.1 89 0.9 SSW 2 6 1 3 1013.7 - 0.2
24/07:00am 11.2 11.2 9.8 91 0.7 CALM 0 4 0 2 1013.1 - 0.2
24/06:30am 10.7 10.3 9.6 93 0.6 SSW 2 7 1 4 1012.8 - 0.2
24/06:00am 10.7 9.6 9.9 95 0.4 SSW 6 7 3 4 1012.2 1012.1 0.2
24/05:30am 11.1 9.6 10.5 96 0.3 SSW 9 11 5 6 1011.8 - 0.2
24/05:00am 11.0 9.8 10.4 96 0.3 SSW 7 9 4 5 1012.0 - 0.2
24/04:30am 11.0 9.5 10.4 96 0.3 SSW 9 11 5 6 1012.1 - 0.2
24/04:00am 11.2 10.3 10.6 96 0.3 SSW 6 9 3 5 1012.4 - 0.2
24/03:30am 11.2 11.0 10.6 96 0.3 SSW 2 7 1 4 1012.4 - 0.2
24/03:00am 11.4 10.5 10.6 95 0.4 SSW 6 7 3 4 1013.1 1013.0 0.2
24/02:30am 11.7 10.6 10.8 94 0.5 SSW 7 9 4 5 1013.2 - 0.2
24/02:00am 11.7 10.4 9.9 89 0.9 SSW 7 9 4 5 1013.7 - 0.2
24/01:30am 10.5 8.9 8.6 88 0.9 SSW 7 9 4 5 1014.1 - 0.2
24/01:00am 10.1 8.4 8.2 88 0.9 SSW 7 9 4 5 1014.7 - 0.2
24/12:30am 10.0 8.8 8.1 88 0.9 SSW 4 6 2 3 1014.8 - 0.2
24/12:00am 11.2 9.4 9.6 90 0.8 SSW 9 11 5 6 1015.1 1015.1 0.2
 
Date/Time
CDT
Tmp

°C
App
Tmp
°C
Dew
Point
°C
Rel
Hum
%
Delta-T

°C
Wind Press
QNH
hPa
Press
MSL
hPa
Rain
since
9 am
mm
Dir
 
Spd
km/h
Gust
km/h
Spd
kts
Gust
kts
23/11:30pm 10.0 8.4 7.8 86 1.1 SSW 6 7 3 4 1015.2 - 0.2
23/11:00pm 10.6 8.6 8.7 88 0.9 SSW 9 11 5 6 1015.3 - 0.2
23/10:30pm 11.2 9.7 9.1 87 1.0 SSW 7 9 4 5 1015.4 - 0.2
23/10:00pm 11.6 10.1 9.2 85 1.2 SSW 7 9 4 5 1015.7 - 0.2
23/09:30pm 12.1 10.7 9.7 85 1.2 SSW 7 9 4 5 1015.7 - 0.2
23/09:00pm 12.4 11.0 9.6 83 1.4 SSW 7 9 4 5 1015.8 1015.8 0.2
23/08:30pm 13.0 11.9 9.8 81 1.6 SSW 6 6 3 3 1015.4 - 0.2
23/08:00pm 13.7 12.2 10.5 81 1.7 SSW 9 11 5 6 1015.3 - 0.2
23/07:30pm 14.5 11.9 10.7 78 2.0 SSW 15 19 8 10 1015.1 - 0.2
23/07:00pm 15.3 12.4 10.9 75 2.3 SW 17 24 9 13 1015.1 - 0.2
23/06:30pm 16.1 12.6 10.8 71 2.8 SSW 20 24 11 13 1014.9 - 0.2
23/06:00pm 17.2 14.3 11.0 67 3.3 SSW 17 24 9 13 1014.6 1014.6 0.2
23/05:30pm 17.6 14.1 10.9 65 3.6 SSW 20 26 11 14 1014.6 - 0.2
23/05:00pm 19.0 15.2 11.3 61 4.2 S 22 30 12 16 1014.5 - 0.2
23/04:30pm 19.0 15.6 11.1 60 4.3 S 20 28 11 15 1014.4 - 0.2

Latest Capital City Observations: Canberra | Sydney | Melbourne | Brisbane | Adelaide | Perth | Hobart | Darwin

Other Formats:

Comma delimited format used in spreadsheet applications
http://www.bom.gov.au/fwo/IDS60901/IDS60901.94814.axf

JavaScript Object Notation format (JSON) in row-major order
http://www.bom.gov.au/fwo/IDS60901/IDS60901.94814.json